sensor_id;sensor_type;location;lat;lon;timestamp;pressure;altitude;pressure_sealevel;temperature;humidity
7337;BME280;54510;42.016;23.098;2023-05-10T00:01:31;-21564.78;;;15.67;76.98
7337;BME280;54510;42.016;23.098;2023-05-10T00:03:56;-21564.09;;;15.65;76.18
7337;BME280;54510;42.016;23.098;2023-05-10T00:06:21;-21563.13;;;15.61;75.58
7337;BME280;54510;42.016;23.098;2023-05-10T00:08:47;-21560.50;;;15.52;76.46
7337;BME280;54510;42.016;23.098;2023-05-10T00:11:12;-21560.50;;;15.52;76.20
7337;BME280;54510;42.016;23.098;2023-05-10T00:13:37;-21562.03;;;15.57;76.55
7337;BME280;54510;42.016;23.098;2023-05-10T00:16:02;-21565.47;;;15.70;76.11
7337;BME280;54510;42.016;23.098;2023-05-10T00:18:28;-21565.47;;;15.70;75.66
7337;BME280;54510;42.016;23.098;2023-05-10T00:20:53;-21563.53;;;15.63;75.64
7337;BME280;54510;42.016;23.098;2023-05-10T00:23:18;-21562.03;;;15.57;75.01
7337;BME280;54510;42.016;23.098;2023-05-10T00:25:44;-21559.81;;;15.49;75.63
7337;BME280;54510;42.016;23.098;2023-05-10T00:28:09;-21561.88;;;15.57;75.45
7337;BME280;54510;42.016;23.098;2023-05-10T00:30:34;-21559.41;;;15.48;75.65
7337;BME280;54510;42.016;23.098;2023-05-10T00:32:59;-21559.41;;;15.48;75.97
7337;BME280;54510;42.016;23.098;2023-05-10T00:35:25;-21558.84;;;15.46;75.77
7337;BME280;54510;42.016;23.098;2023-05-10T00:37:51;-21560.66;;;15.52;75.45
7337;BME280;54510;42.016;23.098;2023-05-10T00:40:16;-21556.38;;;15.36;76.35
7337;BME280;54510;42.016;23.098;2023-05-10T00:42:41;-21551.25;;;15.18;77.01
7337;BME280;54510;42.016;23.098;2023-05-10T00:45:06;-21553.75;;;15.27;76.66
7337;BME280;54510;42.016;23.098;2023-05-10T00:47:32;-21557.63;;;15.41;76.31
7337;BME280;54510;42.016;23.098;2023-05-10T00:49:57;-21558.84;;;15.46;76.84
7337;BME280;54510;42.016;23.098;2023-05-10T00:52:23;-21562.16;;;15.58;76.87
7337;BME280;54510;42.016;23.098;2023-05-10T00:54:52;-21561.19;;;15.54;76.58
7337;BME280;54510;42.016;23.098;2023-05-10T00:57:17;-21563.00;;;15.61;75.51
7337;BME280;54510;42.016;23.098;2023-05-10T00:59:43;-21565.22;;;15.69;75.83
7337;BME280;54510;42.016;23.098;2023-05-10T01:02:08;-21567.13;;;15.76;75.47
7337;BME280;54510;42.016;23.098;2023-05-10T01:04:34;-21567.69;;;15.78;75.47
7337;BME280;54510;42.016;23.098;2023-05-10T01:07:00;-21564.25;;;15.65;75.53
7337;BME280;54510;42.016;23.098;2023-05-10T01:09:26;-21558.03;;;15.42;75.50
7337;BME280;54510;42.016;23.098;2023-05-10T01:11:51;-21556.38;;;15.36;76.32
7337;BME280;54510;42.016;23.098;2023-05-10T01:14:17;-21558.03;;;15.42;76.97
7337;BME280;54510;42.016;23.098;2023-05-10T01:16:43;-21557.47;;;15.40;77.07
7337;BME280;54510;42.016;23.098;2023-05-10T01:19:12;-21553.34;;;15.25;78.22
7337;BME280;54510;42.016;23.098;2023-05-10T01:21:43;-21555.25;;;15.32;77.78
7337;BME280;54510;42.016;23.098;2023-05-10T01:34:34;-21557.63;;;15.41;78.32
7337;BME280;54510;42.016;23.098;2023-05-10T01:37:07;-21558.31;;;15.43;77.17
7337;BME280;54510;42.016;23.098;2023-05-10T01:39:55;-21556.50;;;15.37;78.12
7337;BME280;54510;42.016;23.098;2023-05-10T01:42:23;-21561.06;;;15.54;78.45
7337;BME280;54510;42.016;23.098;2023-05-10T01:47:38;-21557.34;;;15.40;77.88
7337;BME280;54510;42.016;23.098;2023-05-10T01:50:06;-21557.75;;;15.41;77.79
7337;BME280;54510;42.016;23.098;2023-05-10T01:52:38;-21553.59;;;15.26;76.55
7337;BME280;54510;42.016;23.098;2023-05-10T01:55:06;-21554.16;;;15.28;76.75
7337;BME280;54510;42.016;23.098;2023-05-10T01:57:33;-21554.84;;;15.31;77.47
7337;BME280;54510;42.016;23.098;2023-05-10T02:00:00;-21550.03;;;15.13;78.33
7337;BME280;54510;42.016;23.098;2023-05-10T02:02:27;-21552.91;;;15.24;77.83
7337;BME280;54510;42.016;23.098;2023-05-10T02:04:54;-21554.28;;;15.29;77.55
7337;BME280;54510;42.016;23.098;2023-05-10T02:07:21;-21555.41;;;15.33;77.51
7337;BME280;54510;42.016;23.098;2023-05-10T02:09:46;-21548.50;;;15.08;78.02
7337;BME280;54510;42.016;23.098;2023-05-10T02:12:13;-21541.06;;;14.80;78.94
7337;BME280;54510;42.016;23.098;2023-05-10T02:14:38;-21546.03;;;14.98;79.26
7337;BME280;54510;42.016;23.098;2023-05-10T02:17:05;-21547.25;;;15.03;78.29
7337;BME280;54510;42.016;23.098;2023-05-10T02:19:32;-21546.03;;;14.98;78.04
7337;BME280;54510;42.016;23.098;2023-05-10T02:21:57;-21547.13;;;15.02;78.01
7337;BME280;54510;42.016;23.098;2023-05-10T02:24:24;-21544.22;;;14.92;78.14
7337;BME280;54510;42.016;23.098;2023-05-10T02:26:50;-21543.66;;;14.90;78.13
7337;BME280;54510;42.016;23.098;2023-05-10T02:29:16;-21546.44;;;15.00;78.99
7337;BME280;54510;42.016;23.098;2023-05-10T02:31:42;-21547.69;;;15.05;78.03
7337;BME280;54510;42.016;23.098;2023-05-10T02:34:08;-21550.16;;;15.14;77.17
7337;BME280;54510;42.016;23.098;2023-05-10T02:36:35;-21553.88;;;15.27;76.96
7337;BME280;54510;42.016;23.098;2023-05-10T02:39:01;-21554.72;;;15.30;77.45
7337;BME280;54510;42.016;23.098;2023-05-10T02:41:26;-21552.78;;;15.23;77.27
7337;BME280;54510;42.016;23.098;2023-05-10T02:43:53;-21551.41;;;15.18;77.44
7337;BME280;54510;42.016;23.098;2023-05-10T02:46:21;-21551.94;;;15.20;77.07
7337;BME280;54510;42.016;23.098;2023-05-10T02:48:46;-21553.06;;;15.24;77.41
7337;BME280;54510;42.016;23.098;2023-05-10T02:51:11;-21552.63;;;15.23;76.41
7337;BME280;54510;42.016;23.098;2023-05-10T02:53:40;-21549.75;;;15.12;76.63
7337;BME280;54510;42.016;23.098;2023-05-10T02:56:09;-21552.22;;;15.21;76.22
7337;BME280;54510;42.016;23.098;2023-05-10T02:58:37;-21556.09;;;15.35;75.67
7337;BME280;54510;42.016;23.098;2023-05-10T03:01:02;-21554.56;;;15.30;75.69
7337;BME280;54510;42.016;23.098;2023-05-10T03:03:27;-21551.25;;;15.18;75.88
7337;BME280;54510;42.016;23.098;2023-05-10T03:05:53;-21552.78;;;15.23;76.07
7337;BME280;54510;42.016;23.098;2023-05-10T03:08:20;-21551.69;;;15.19;75.71
7337;BME280;54510;42.016;23.098;2023-05-10T03:11:21;-21551.69;;;15.19;76.76
7337;BME280;54510;42.016;23.098;2023-05-10T03:16:23;-21555.53;;;15.33;76.67
7337;BME280;54510;42.016;23.098;2023-05-10T03:21:15;-21555.00;;;15.31;76.05
7337;BME280;54510;42.016;23.098;2023-05-10T03:26:37;-21554.56;;;15.30;75.86
7337;BME280;54510;42.016;23.098;2023-05-10T03:29:04;-21551.69;;;15.19;76.42
7337;BME280;54510;42.016;23.098;2023-05-10T03:31:30;-21553.88;;;15.27;76.49
7337;BME280;54510;42.016;23.098;2023-05-10T03:33:55;-21551.94;;;15.20;77.77
7337;BME280;54510;42.016;23.098;2023-05-10T03:36:20;-21549.59;;;15.12;76.96
7337;BME280;54510;42.016;23.098;2023-05-10T03:38:46;-21547.69;;;15.05;76.81
7337;BME280;54510;42.016;23.098;2023-05-10T03:41:11;-21543.25;;;14.88;76.18
7337;BME280;54510;42.016;23.098;2023-05-10T03:43:37;-21546.16;;;14.99;76.64
7337;BME280;54510;42.016;23.098;2023-05-10T03:46:03;-21547.69;;;15.05;76.01
7337;BME280;54510;42.016;23.098;2023-05-10T03:48:28;-21538.97;;;14.73;75.38
7337;BME280;54510;42.016;23.098;2023-05-10T03:50:53;-21538.41;;;14.71;76.09
7337;BME280;54510;42.016;23.098;2023-05-10T03:53:18;-21535.53;;;14.60;76.33
7337;BME280;54510;42.016;23.098;2023-05-10T03:55:44;-21537.31;;;14.67;76.54
7337;BME280;54510;42.016;23.098;2023-05-10T03:58:12;-21541.06;;;14.80;76.16
7337;BME280;54510;42.016;23.098;2023-05-10T04:00:38;-21540.06;;;14.77;76.51
7337;BME280;54510;42.016;23.098;2023-05-10T04:03:08;-21537.19;;;14.66;76.14
7337;BME280;54510;42.016;23.098;2023-05-10T04:05:34;-21534.56;;;14.56;77.19
7337;BME280;54510;42.016;23.098;2023-05-10T04:08:00;-21538.16;;;14.70;76.83
7337;BME280;54510;42.016;23.098;2023-05-10T04:10:25;-21542.00;;;14.84;76.67
7337;BME280;54510;42.016;23.098;2023-05-10T04:12:50;-21543.53;;;14.89;76.11
7337;BME280;54510;42.016;23.098;2023-05-10T04:15:15;-21542.97;;;14.87;76.17
7337;BME280;54510;42.016;23.098;2023-05-10T04:17:41;-21544.50;;;14.93;76.36
7337;BME280;54510;42.016;23.098;2023-05-10T04:20:06;-21546.44;;;15.00;76.24
7337;BME280;54510;42.016;23.098;2023-05-10T04:22:32;-21546.97;;;15.02;76.36
7337;BME280;54510;42.016;23.098;2023-05-10T04:24:57;-21544.22;;;14.92;77.10
7337;BME280;54510;42.016;23.098;2023-05-10T04:27:23;-21546.84;;;15.01;76.59
7337;BME280;54510;42.016;23.098;2023-05-10T04:29:48;-21550.72;;;15.16;75.90
7337;BME280;54510;42.016;23.098;2023-05-10T04:32:13;-21550.97;;;15.17;75.37
7337;BME280;54510;42.016;23.098;2023-05-10T04:34:38;-21549.59;;;15.12;75.84
7337;BME280;54510;42.016;23.098;2023-05-10T04:37:04;-21547.81;;;15.05;75.13
7337;BME280;54510;42.016;23.098;2023-05-10T04:39:29;-21542.84;;;14.87;75.21
7337;BME280;54510;42.016;23.098;2023-05-10T04:41:54;-21540.91;;;14.80;75.81
7337;BME280;54510;42.016;23.098;2023-05-10T04:44:19;-21542.69;;;14.86;75.36
7337;BME280;54510;42.016;23.098;2023-05-10T04:46:45;-21546.16;;;14.99;75.31
7337;BME280;54510;42.016;23.098;2023-05-10T04:49:10;-21546.44;;;15.00;74.26
7337;BME280;54510;42.016;23.098;2023-05-10T04:51:35;-21547.53;;;15.04;74.57
7337;BME280;54510;42.016;23.098;2023-05-10T04:54:01;-21547.25;;;15.03;73.64
7337;BME280;54510;42.016;23.098;2023-05-10T04:56:26;-21544.78;;;14.94;75.04
7337;BME280;54510;42.016;23.098;2023-05-10T04:58:51;-21543.53;;;14.89;74.95
7337;BME280;54510;42.016;23.098;2023-05-10T05:01:16;-21542.84;;;14.87;75.04
7337;BME280;54510;42.016;23.098;2023-05-10T05:03:42;-21538.28;;;14.70;75.30
7337;BME280;54510;42.016;23.098;2023-05-10T05:06:07;-21538.41;;;14.71;75.41
7337;BME280;54510;42.016;23.098;2023-05-10T05:08:32;-21541.31;;;14.81;74.89
7337;BME280;54510;42.016;23.098;2023-05-10T05:10:58;-21539.94;;;14.76;74.86
7337;BME280;54510;42.016;23.098;2023-05-10T05:13:24;-21537.31;;;14.67;74.69
7337;BME280;54510;42.016;23.098;2023-05-10T05:15:49;-21539.13;;;14.73;75.26
7337;BME280;54510;42.016;23.098;2023-05-10T05:18:14;-21539.25;;;14.74;75.18
7337;BME280;54510;42.016;23.098;2023-05-10T05:20:40;-21542.00;;;14.84;74.24
7337;BME280;54510;42.016;23.098;2023-05-10T05:23:05;-21541.88;;;14.83;73.91
7337;BME280;54510;42.016;23.098;2023-05-10T05:25:30;-21541.19;;;14.81;74.34
7337;BME280;54510;42.016;23.098;2023-05-10T05:27:56;-21539.81;;;14.76;74.44
7337;BME280;54510;42.016;23.098;2023-05-10T05:30:21;-21545.59;;;14.97;74.73
7337;BME280;54510;42.016;23.098;2023-05-10T05:32:46;-21548.63;;;15.08;73.51
7337;BME280;54510;42.016;23.098;2023-05-10T05:35:12;-21540.78;;;14.79;73.12
7337;BME280;54510;42.016;23.098;2023-05-10T05:37:37;-21540.78;;;14.79;74.75
7337;BME280;54510;42.016;23.098;2023-05-10T05:40:03;-21542.84;;;14.87;74.43
7337;BME280;54510;42.016;23.098;2023-05-10T05:42:28;-21540.91;;;14.80;75.23
7337;BME280;54510;42.016;23.098;2023-05-10T05:44:53;-21533.59;;;14.53;76.15
7337;BME280;54510;42.016;23.098;2023-05-10T05:47:19;-21532.91;;;14.50;75.89
7337;BME280;54510;42.016;23.098;2023-05-10T05:49:44;-21531.94;;;14.47;75.74
7337;BME280;54510;42.016;23.098;2023-05-10T05:52:12;-21530.81;;;14.43;75.24
7337;BME280;54510;42.016;23.098;2023-05-10T05:54:37;-21528.75;;;14.35;75.57
7337;BME280;54510;42.016;23.098;2023-05-10T05:57:03;-21529.31;;;14.37;75.46
7337;BME280;54510;42.016;23.098;2023-05-10T05:59:28;-21537.44;;;14.67;74.84
7337;BME280;54510;42.016;23.098;2023-05-10T06:01:53;-21543.41;;;14.89;73.87
7337;BME280;54510;42.016;23.098;2023-05-10T06:04:19;-21544.22;;;14.92;74.23
7337;BME280;54510;42.016;23.098;2023-05-10T06:06:44;-21544.78;;;14.94;74.20
7337;BME280;54510;42.016;23.098;2023-05-10T06:09:10;-21545.19;;;14.95;74.83
7337;BME280;54510;42.016;23.098;2023-05-10T06:11:35;-21547.81;;;15.05;74.61
7337;BME280;54510;42.016;23.098;2023-05-10T06:14:01;-21546.72;;;15.01;73.40
7337;BME280;54510;42.016;23.098;2023-05-10T06:16:26;-21549.75;;;15.12;73.35
7337;BME280;54510;42.016;23.098;2023-05-10T06:18:52;-21554.03;;;15.28;73.35
7337;BME280;54510;42.016;23.098;2023-05-10T06:21:17;-21555.41;;;15.33;74.36
7337;BME280;54510;42.016;23.098;2023-05-10T06:23:42;-21555.69;;;15.34;74.37
7337;BME280;54510;42.016;23.098;2023-05-10T06:26:08;-21552.50;;;15.22;73.62
7337;BME280;54510;42.016;23.098;2023-05-10T06:28:34;-21554.84;;;15.31;74.76
7337;BME280;54510;42.016;23.098;2023-05-10T06:30:59;-21552.78;;;15.23;73.67
7337;BME280;54510;42.016;23.098;2023-05-10T06:33:25;-21556.38;;;15.36;74.35
7337;BME280;54510;42.016;23.098;2023-05-10T06:35:50;-21561.88;;;15.57;74.43
7337;BME280;54510;42.016;23.098;2023-05-10T06:38:16;-21560.22;;;15.51;73.84
7337;BME280;54510;42.016;23.098;2023-05-10T06:40:41;-21559.69;;;15.49;73.67
7337;BME280;54510;42.016;23.098;2023-05-10T06:43:07;-21561.34;;;15.55;74.41
7337;BME280;54510;42.016;23.098;2023-05-10T06:45:33;-21560.94;;;15.53;73.85
7337;BME280;54510;42.016;23.098;2023-05-10T06:47:58;-21561.63;;;15.56;73.72
7337;BME280;54510;42.016;23.098;2023-05-10T06:50:23;-21561.88;;;15.57;73.37
7337;BME280;54510;42.016;23.098;2023-05-10T06:52:49;-21562.16;;;15.58;73.44
7337;BME280;54510;42.016;23.098;2023-05-10T06:55:14;-21562.59;;;15.59;73.53
7337;BME280;54510;42.016;23.098;2023-05-10T06:57:39;-21562.16;;;15.58;74.22
7337;BME280;54510;42.016;23.098;2023-05-10T07:00:05;-21560.09;;;15.50;73.06
7337;BME280;54510;42.016;23.098;2023-05-10T07:02:30;-21556.78;;;15.38;74.01
7337;BME280;54510;42.016;23.098;2023-05-10T07:04:55;-21561.47;;;15.55;74.38
7337;BME280;54510;42.016;23.098;2023-05-10T07:07:21;-21564.50;;;15.66;74.83
7337;BME280;54510;42.016;23.098;2023-05-10T07:09:46;-21566.59;;;15.74;73.33
7337;BME280;54510;42.016;23.098;2023-05-10T07:12:12;-21566.44;;;15.73;72.93
7337;BME280;54510;42.016;23.098;2023-05-10T07:14:37;-21564.50;;;15.66;73.06
7337;BME280;54510;42.016;23.098;2023-05-10T07:17:02;-21564.78;;;15.67;73.36
7337;BME280;54510;42.016;23.098;2023-05-10T07:19:28;-21564.25;;;15.65;74.70
7337;BME280;54510;42.016;23.098;2023-05-10T07:21:54;-21568.25;;;15.80;74.05
7337;BME280;54510;42.016;23.098;2023-05-10T07:24:20;-21569.63;;;15.85;74.25
7337;BME280;54510;42.016;23.098;2023-05-10T07:26:45;-21569.34;;;15.84;74.33
7337;BME280;54510;42.016;23.098;2023-05-10T07:29:11;-21571.28;;;15.91;73.33
7337;BME280;54510;42.016;23.098;2023-05-10T07:31:36;-21563.81;;;15.64;74.66
7337;BME280;54510;42.016;23.098;2023-05-10T07:34:02;-21567.81;;;15.78;75.23
7337;BME280;54510;42.016;23.098;2023-05-10T07:36:27;-21571.53;;;15.92;75.07
7337;BME280;54510;42.016;23.098;2023-05-10T07:38:52;-21577.06;;;16.12;74.42
7337;BME280;54510;42.016;23.098;2023-05-10T07:41:18;-21579.28;;;16.20;73.58
7337;BME280;54510;42.016;23.098;2023-05-10T07:43:43;-21579.69;;;16.22;73.21
7337;BME280;54510;42.016;23.098;2023-05-10T07:46:09;-21582.28;;;16.32;73.03
7337;BME280;54510;42.016;23.098;2023-05-10T07:48:36;-21574.03;;;16.01;73.48
7337;BME280;54510;42.016;23.098;2023-05-10T07:51:01;-21575.81;;;16.08;74.09
7337;BME280;54510;42.016;23.098;2023-05-10T07:53:26;-21576.09;;;16.09;74.67
7337;BME280;54510;42.016;23.098;2023-05-10T07:55:53;-21582.28;;;16.32;73.12
7337;BME280;54510;42.016;23.098;2023-05-10T07:58:19;-21591.81;;;16.67;70.74
7337;BME280;54510;42.016;23.098;2023-05-10T08:00:44;-21595.81;;;16.81;70.16
7337;BME280;54510;42.016;23.098;2023-05-10T08:03:10;-21597.19;;;16.86;70.69
7337;BME280;54510;42.016;23.098;2023-05-10T08:05:35;-21605.31;;;17.16;69.56
7337;BME280;54510;42.016;23.098;2023-05-10T08:08:00;-21606.13;;;17.19;68.42
7337;BME280;54510;42.016;23.098;2023-05-10T08:10:26;-21607.66;;;17.25;69.05
7337;BME280;54510;42.016;23.098;2023-05-10T08:12:51;-21608.75;;;17.29;68.45
7337;BME280;54510;42.016;23.098;2023-05-10T08:15:16;-21608.34;;;17.27;66.47
7337;BME280;54510;42.016;23.098;2023-05-10T08:17:42;-21610.13;;;17.34;68.27
7337;BME280;54510;42.016;23.098;2023-05-10T08:20:08;-21612.75;;;17.44;68.16
7337;BME280;54510;42.016;23.098;2023-05-10T08:22:33;-21615.34;;;17.53;67.26
7337;BME280;54510;42.016;23.098;2023-05-10T08:24:58;-21618.94;;;17.66;66.80
7337;BME280;54510;42.016;23.098;2023-05-10T08:27:24;-21625.25;;;17.90;66.75
7337;BME280;54510;42.016;23.098;2023-05-10T08:29:49;-21627.31;;;17.97;66.54
7337;BME280;54510;42.016;23.098;2023-05-10T08:32:14;-21620.31;;;17.71;67.34
7337;BME280;54510;42.016;23.098;2023-05-10T08:34:40;-21616.47;;;17.57;67.50
7337;BME280;54510;42.016;23.098;2023-05-10T08:37:05;-21612.31;;;17.42;66.30
7337;BME280;54510;42.016;23.098;2023-05-10T08:39:33;-21612.75;;;17.44;66.40
7337;BME280;54510;42.016;23.098;2023-05-10T08:41:59;-21611.38;;;17.38;68.19
7337;BME280;54510;42.016;23.098;2023-05-10T08:44:26;-21610.94;;;17.37;67.74
7337;BME280;54510;42.016;23.098;2023-05-10T08:46:51;-21619.06;;;17.67;66.68
7337;BME280;54510;42.016;23.098;2023-05-10T08:49:18;-21621.69;;;17.76;66.27
7337;BME280;54510;42.016;23.098;2023-05-10T08:51:47;-21620.88;;;17.73;65.13
7337;BME280;54510;42.016;23.098;2023-05-10T08:54:14;-21621.28;;;17.75;66.01
7337;BME280;54510;42.016;23.098;2023-05-10T08:56:40;-21623.34;;;17.83;65.31
7337;BME280;54510;42.016;23.098;2023-05-10T08:59:05;-21622.38;;;17.79;65.33
7337;BME280;54510;42.016;23.098;2023-05-10T09:01:31;-21623.19;;;17.82;65.74
7337;BME280;54510;42.016;23.098;2023-05-10T09:03:56;-21618.25;;;17.64;64.61
7337;BME280;54510;42.016;23.098;2023-05-10T09:06:23;-21614.66;;;17.51;66.07
7337;BME280;54510;42.016;23.098;2023-05-10T09:08:48;-21618.94;;;17.66;66.95
7337;BME280;54510;42.016;23.098;2023-05-10T09:11:14;-21620.03;;;17.70;65.47
7337;BME280;54510;42.016;23.098;2023-05-10T09:13:40;-21617.56;;;17.61;66.83
7337;BME280;54510;42.016;23.098;2023-05-10T09:16:05;-21620.03;;;17.70;66.81
7337;BME280;54510;42.016;23.098;2023-05-10T09:18:30;-21626.63;;;17.95;66.40
7337;BME280;54510;42.016;23.098;2023-05-10T09:20:56;-21629.66;;;18.06;65.81
7337;BME280;54510;42.016;23.098;2023-05-10T09:23:21;-21627.06;;;17.96;65.08
7337;BME280;54510;42.016;23.098;2023-05-10T09:25:47;-21627.31;;;17.97;66.19
7337;BME280;54510;42.016;23.098;2023-05-10T09:28:12;-21630.75;;;18.10;65.27
7337;BME280;54510;42.016;23.098;2023-05-10T09:30:37;-21630.34;;;18.08;65.16
7337;BME280;54510;42.016;23.098;2023-05-10T09:33:03;-21631.88;;;18.14;65.77
7337;BME280;54510;42.016;23.098;2023-05-10T09:35:29;-21631.03;;;18.11;65.36
7337;BME280;54510;42.016;23.098;2023-05-10T09:37:56;-21625.25;;;17.90;65.67
7337;BME280;54510;42.016;23.098;2023-05-10T09:40:25;-21629.81;;;18.06;65.11
7337;BME280;54510;42.016;23.098;2023-05-10T09:45:19;-21637.09;;;18.33;63.49
7337;BME280;54510;42.016;23.098;2023-05-10T09:47:45;-21639.28;;;18.41;62.37
7337;BME280;54510;42.016;23.098;2023-05-10T09:50:10;-21638.88;;;18.40;63.57
7337;BME280;54510;42.016;23.098;2023-05-10T09:52:45;-21638.75;;;18.39;63.83
7337;BME280;54510;42.016;23.098;2023-05-10T09:55:11;-21639.56;;;18.42;62.19
7337;BME280;54510;42.016;23.098;2023-05-10T09:57:37;-21645.75;;;18.65;64.24
7337;BME280;54510;42.016;23.098;2023-05-10T10:00:02;-21647.25;;;18.71;64.30
7337;BME280;54510;42.016;23.098;2023-05-10T10:02:30;-21652.75;;;18.91;62.64
7337;BME280;54510;42.016;23.098;2023-05-10T10:04:56;-21654.13;;;18.96;62.02
7337;BME280;54510;42.016;23.098;2023-05-10T10:07:22;-21658.66;;;19.13;60.16
7337;BME280;54510;42.016;23.098;2023-05-10T10:09:48;-21657.84;;;19.10;60.76
7337;BME280;54510;42.016;23.098;2023-05-10T10:12:14;-21666.06;;;19.40;60.50
7337;BME280;54510;42.016;23.098;2023-05-10T10:14:39;-21669.50;;;19.53;56.95
7337;BME280;54510;42.016;23.098;2023-05-10T10:17:05;-21673.34;;;19.67;57.25
7337;BME280;54510;42.016;23.098;2023-05-10T10:19:30;-21669.22;;;19.52;56.55
7337;BME280;54510;42.016;23.098;2023-05-10T10:21:57;-21663.47;;;19.30;56.49
7337;BME280;54510;42.016;23.098;2023-05-10T10:24:24;-21665.66;;;19.39;57.73
7337;BME280;54510;42.016;23.098;2023-05-10T10:26:49;-21669.78;;;19.54;58.39
7337;BME280;54510;42.016;23.098;2023-05-10T10:29:21;-21673.50;;;19.67;56.97
7337;BME280;54510;42.016;23.098;2023-05-10T10:34:32;-21671.97;;;19.62;56.48
7337;BME280;54510;42.016;23.098;2023-05-10T10:36:57;-21674.03;;;19.69;56.93
7337;BME280;54510;42.016;23.098;2023-05-10T10:39:28;-21668.97;;;19.51;57.26
7337;BME280;54510;42.016;23.098;2023-05-10T10:41:57;-21670.88;;;19.58;57.94
7337;BME280;54510;42.016;23.098;2023-05-10T10:47:33;-21679.66;;;19.90;57.87
7337;BME280;54510;42.016;23.098;2023-05-10T10:52:28;-21659.34;;;19.15;58.05
7337;BME280;54510;42.016;23.098;2023-05-10T10:55:10;-21657.97;;;19.10;60.68
7337;BME280;54510;42.016;23.098;2023-05-10T11:03:08;-21673.63;;;19.68;56.91
7337;BME280;54510;42.016;23.098;2023-05-10T11:05:35;-21675.69;;;19.76;56.37
7337;BME280;54510;42.016;23.098;2023-05-10T11:08:06;-21679.38;;;19.89;56.13
7337;BME280;54510;42.016;23.098;2023-05-10T11:10:31;-21677.47;;;19.82;55.56
7337;BME280;54510;42.016;23.098;2023-05-10T11:13:00;-21676.63;;;19.79;55.84
7337;BME280;54510;42.016;23.098;2023-05-10T11:15:35;-21684.19;;;20.07;56.16
7337;BME280;54510;42.016;23.098;2023-05-10T11:18:19;-21683.78;;;20.05;54.75
7337;BME280;54510;42.016;23.098;2023-05-10T11:20:51;-21690.22;;;20.29;54.85
7337;BME280;54510;42.016;23.098;2023-05-10T11:23:17;-21696.13;;;20.51;53.92
7337;BME280;54510;42.016;23.098;2023-05-10T11:25:43;-21698.59;;;20.60;54.00
7337;BME280;54510;42.016;23.098;2023-05-10T11:28:12;-21699.13;;;20.62;54.54
7337;BME280;54510;42.016;23.098;2023-05-10T11:30:38;-21692.28;;;20.37;56.79
7337;BME280;54510;42.016;23.098;2023-05-10T11:33:03;-21699.00;;;20.62;56.41
7337;BME280;54510;42.016;23.098;2023-05-10T11:35:29;-21708.44;;;20.97;54.77
7337;BME280;54510;42.016;23.098;2023-05-10T11:37:55;-21709.69;;;21.01;52.38
7337;BME280;54510;42.016;23.098;2023-05-10T11:40:23;-21704.34;;;20.81;52.64
7337;BME280;54510;42.016;23.098;2023-05-10T11:42:52;-21704.59;;;20.82;53.20
7337;BME280;54510;42.016;23.098;2023-05-10T11:45:20;-21704.88;;;20.83;52.87
7337;BME280;54510;42.016;23.098;2023-05-10T11:47:48;-21703.78;;;20.79;54.40
7337;BME280;54510;42.016;23.098;2023-05-10T11:50:14;-21701.88;;;20.72;53.25
7337;BME280;54510;42.016;23.098;2023-05-10T11:52:39;-21708.03;;;20.95;52.76
7337;BME280;54510;42.016;23.098;2023-05-10T11:55:04;-21712.28;;;21.11;52.75
7337;BME280;54510;42.016;23.098;2023-05-10T11:57:30;-21700.78;;;20.68;52.87
7337;BME280;54510;42.016;23.098;2023-05-10T11:59:56;-21697.91;;;20.58;53.30
7337;BME280;54510;42.016;23.098;2023-05-10T12:02:22;-21696.41;;;20.52;53.50
7337;BME280;54510;42.016;23.098;2023-05-10T12:04:47;-21703.25;;;20.77;53.57
7337;BME280;54510;42.016;23.098;2023-05-10T12:07:13;-21709.00;;;20.99;53.42
7337;BME280;54510;42.016;23.098;2023-05-10T12:09:48;-21702.69;;;20.75;52.83
7337;BME280;54510;42.016;23.098;2023-05-10T12:12:27;-21707.06;;;20.92;52.19
7337;BME280;54510;42.016;23.098;2023-05-10T12:14:52;-21709.28;;;21.00;52.48
7337;BME280;54510;42.016;23.098;2023-05-10T12:17:17;-21710.63;;;21.05;53.01
7337;BME280;54510;42.016;23.098;2023-05-10T12:19:42;-21714.34;;;21.18;52.85
7337;BME280;54510;42.016;23.098;2023-05-10T12:22:08;-21712.69;;;21.12;52.61
7337;BME280;54510;42.016;23.098;2023-05-10T12:24:34;-21717.63;;;21.31;52.80
7337;BME280;54510;42.016;23.098;2023-05-10T12:27:04;-21721.31;;;21.44;51.60
7337;BME280;54510;42.016;23.098;2023-05-10T12:29:30;-21717.75;;;21.31;51.72
7337;BME280;54510;42.016;23.098;2023-05-10T12:31:56;-21713.50;;;21.15;52.78
7337;BME280;54510;42.016;23.098;2023-05-10T12:34:31;-21712.69;;;21.12;53.74
7337;BME280;54510;42.016;23.098;2023-05-10T12:36:58;-21703.25;;;20.77;55.34
7337;BME280;54510;42.016;23.098;2023-05-10T12:39:23;-21707.63;;;20.94;54.16
7337;BME280;54510;42.016;23.098;2023-05-10T12:41:49;-21708.31;;;20.96;53.59
7337;BME280;54510;42.016;23.098;2023-05-10T12:44:14;-21691.19;;;20.33;54.83
7337;BME280;54510;42.016;23.098;2023-05-10T12:46:39;-21692.41;;;20.37;55.30
7337;BME280;54510;42.016;23.098;2023-05-10T12:49:05;-21698.84;;;20.61;55.08
7337;BME280;54510;42.016;23.098;2023-05-10T12:51:30;-21699.69;;;20.64;54.55
7337;BME280;54510;42.016;23.098;2023-05-10T12:53:56;-21704.88;;;20.83;55.32
7337;BME280;54510;42.016;23.098;2023-05-10T12:56:21;-21703.66;;;20.79;54.44
7337;BME280;54510;42.016;23.098;2023-05-10T12:58:46;-21700.91;;;20.69;55.27
7337;BME280;54510;42.016;23.098;2023-05-10T13:01:13;-21706.94;;;20.91;54.20
7337;BME280;54510;42.016;23.098;2023-05-10T13:03:38;-21707.22;;;20.92;54.60
7337;BME280;54510;42.016;23.098;2023-05-10T13:06:03;-21688.31;;;20.22;55.78
7337;BME280;54510;42.016;23.098;2023-05-10T13:08:29;-21698.19;;;20.59;54.66
7337;BME280;54510;42.016;23.098;2023-05-10T13:10:58;-21705.97;;;20.87;53.89
7337;BME280;54510;42.016;23.098;2023-05-10T13:13:23;-21708.16;;;20.96;53.33
7337;BME280;54510;42.016;23.098;2023-05-10T13:15:48;-21710.78;;;21.05;52.75
7337;BME280;54510;42.016;23.098;2023-05-10T13:18:14;-21709.00;;;20.99;52.32
7337;BME280;54510;42.016;23.098;2023-05-10T13:20:39;-21706.53;;;20.89;53.48
7337;BME280;54510;42.016;23.098;2023-05-10T13:23:04;-21708.72;;;20.98;53.64